Time;durP1;ratioP1;P1;durP2;ratioP2;P2;SDS_P1;SDS_P2;PMS_P1;PMS_P2;Temp;Humidity;BMP_temperature;BMP_pressure;BME280_temperature;BME280_humidity;BME280_pressure;Samples;Min_cycle;Max_cycle;Signal;HPM_P1;HPM_P2
2023/06/22 00:01:51;;;;;;;3.40;2.03;;;24.50;61.80;;;;;;4974865;28;20355;-59
2023/06/22 00:04:17;;;;;;;4.55;2.30;;;24.40;61.80;;;;;;4975330;28;20051;-59
2023/06/22 00:06:43;;;;;;;2.50;1.73;;;24.40;61.80;;;;;;4975674;28;20046;-59
2023/06/22 00:09:10;;;;;;;4.25;2.15;;;24.40;61.80;;;;;;4975915;28;20478;-60
2023/06/22 00:11:36;;;;;;;4.55;2.13;;;24.40;61.90;;;;;;4975969;28;20081;-59
2023/06/22 00:14:02;;;;;;;3.75;2.35;;;24.40;61.80;;;;;;4975060;28;20043;-59
2023/06/22 00:16:27;;;;;;;2.80;1.70;;;24.40;61.90;;;;;;4975063;28;20134;-59
2023/06/22 00:18:53;;;;;;;3.20;2.00;;;24.40;61.80;;;;;;4975772;28;20058;-59
2023/06/22 00:21:20;;;;;;;4.00;1.90;;;24.40;61.80;;;;;;4975616;28;20050;-59
2023/06/22 00:23:47;;;;;;;3.57;1.97;;;24.40;61.90;;;;;;4975758;28;20051;-60
2023/06/22 00:26:13;;;;;;;3.78;1.80;;;24.40;61.90;;;;;;4975774;28;20393;-60
2023/06/22 00:28:38;;;;;;;4.40;2.20;;;24.40;61.90;;;;;;4975144;28;20121;-59
2023/06/22 00:31:04;;;;;;;2.92;1.60;;;24.40;61.90;;;;;;4974529;28;20117;-59
2023/06/22 00:33:29;;;;;;;3.75;2.08;;;24.40;61.90;;;;;;4975298;28;20457;-59
2023/06/22 00:35:55;;;;;;;2.50;1.60;;;24.30;61.90;;;;;;4974718;28;20062;-59
2023/06/22 00:38:21;;;;;;;3.15;1.80;;;24.40;62.00;;;;;;4975482;28;20057;-59
2023/06/22 00:40:46;;;;;;;2.40;1.90;;;24.40;62.00;;;;;;4975748;28;20039;-59
2023/06/22 00:43:12;;;;;;;4.25;2.22;;;24.40;62.00;;;;;;4974902;28;20038;-59
2023/06/22 00:45:38;;;;;;;3.83;1.67;;;24.30;62.00;;;;;;4974176;28;20486;-59
2023/06/22 00:48:04;;;;;;;3.55;1.88;;;24.30;62.60;;;;;;4973990;28;20371;-59
2023/06/22 00:50:33;;;;;;;3.05;1.48;;;24.40;62.00;;;;;;4971966;28;20070;-59
2023/06/22 00:52:59;;;;;;;3.17;2.22;;;24.40;62.00;;;;;;4972990;28;20055;-59
2023/06/22 00:55:28;;;;;;;3.15;1.70;;;24.40;62.00;;;;;;4975832;28;20417;-60
2023/06/22 00:57:55;;;;;;;3.75;1.80;;;24.30;62.00;;;;;;4974358;28;20039;-59
2023/06/22 01:00:24;;;;;;;3.97;2.03;;;24.40;62.10;;;;;;4973244;28;20050;-59
2023/06/22 01:02:51;;;;;;;3.50;1.98;;;24.30;62.00;;;;;;4974331;28;20038;-59
2023/06/22 01:05:21;;;;;;;2.55;1.90;;;24.30;62.00;;;;;;4974605;28;20074;-59
2023/06/22 01:07:59;;;;;;;3.63;1.70;;;24.30;62.00;;;;;;4975108;28;20069;-59
2023/06/22 01:10:54;;;;;;;;;;;24.30;62.00;;;;;;4973818;28;20054;-59
2023/06/22 01:13:42;;;;;;;2.70;1.80;;;24.30;62.10;;;;;;4966052;28;19937;-59
2023/06/22 01:16:30;;;;;;;4.20;2.05;;;24.30;62.10;;;;;;4974000;28;20154;-59
2023/06/22 01:18:57;;;;;;;3.78;2.00;;;24.30;62.10;;;;;;4972428;28;20038;-59
2023/06/22 01:21:24;;;;;;;3.70;2.10;;;24.30;62.10;;;;;;4973254;28;20051;-59
2023/06/22 01:24:17;;;;;;;2.80;1.90;;;24.30;62.10;;;;;;4973353;28;20501;-59
2023/06/22 01:27:09;;;;;;;3.63;2.03;;;24.30;62.10;;;;;;4973850;28;20502;-60
2023/06/22 01:29:35;;;;;;;3.50;1.90;;;24.30;62.10;;;;;;4973095;28;20080;-59
2023/06/22 01:32:01;;;;;;;2.50;1.63;;;24.30;62.20;;;;;;4984085;28;20073;-59
2023/06/22 01:34:27;;;;;;;4.80;1.90;;;24.30;62.20;;;;;;4973217;28;20121;-59
2023/06/22 01:36:53;;;;;;;3.40;1.83;;;24.30;62.20;;;;;;4973639;28;20126;-60
2023/06/22 01:39:18;;;;;;;2.83;1.60;;;24.30;62.20;;;;;;4958916;28;20449;-59
2023/06/22 01:41:44;;;;;;;3.67;1.98;;;24.30;62.20;;;;;;4989414;28;20050;-59
2023/06/22 01:44:09;;;;;;;2.90;1.75;;;24.20;62.10;;;;;;4973905;28;20047;-59
2023/06/22 01:46:35;;;;;;;2.67;1.75;;;24.30;62.20;;;;;;4972159;28;20054;-60
2023/06/22 01:49:02;;;;;;;4.03;2.47;;;24.30;62.20;;;;;;4972546;28;20540;-60
2023/06/22 01:51:27;;;;;;;3.60;1.85;;;24.30;62.20;;;;;;4974441;28;20085;-59
2023/06/22 01:53:53;;;;;;;3.17;1.85;;;24.20;62.20;;;;;;4973236;28;20079;-59
2023/06/22 01:56:19;;;;;;;4.45;1.90;;;24.30;62.20;;;;;;4973914;28;20494;-62
2023/06/22 01:59:16;;;;;;;4.05;1.67;;;24.30;62.20;;;;;;4974291;28;20039;-59
2023/06/22 02:01:44;;;;;;;2.60;1.80;;;24.20;62.20;;;;;;4976075;28;20042;-59
2023/06/22 02:04:12;;;;;;;;;;;24.20;62.20;;;;;;4972377;28;20130;-59
2023/06/22 02:06:38;;;;;;;3.33;1.98;;;24.20;62.20;;;;;;4973199;28;19944;-59
2023/06/22 02:09:12;;;;;;;2.55;1.48;;;24.20;62.20;;;;;;4973597;28;20042;-59
2023/06/22 02:11:38;;;;;;;3.10;1.90;;;24.20;62.20;;;;;;4956058;28;20055;-60
2023/06/22 02:14:03;;;;;;;3.80;1.83;;;24.20;62.30;;;;;;4955913;28;20038;-59
2023/06/22 02:16:30;;;;;;;3.58;1.73;;;24.20;62.20;;;;;;4972548;28;20043;-59
2023/06/22 02:18:57;;;;;;;3.13;1.80;;;24.20;62.30;;;;;;4956558;28;20051;-60
2023/06/22 02:21:23;;;;;;;3.15;1.98;;;24.20;62.30;;;;;;4973436;28;20038;-59
2023/06/22 02:23:49;;;;;;;2.65;1.73;;;24.20;62.30;;;;;;4973353;28;20050;-59
2023/06/22 02:26:16;;;;;;;2.78;1.83;;;24.20;62.30;;;;;;4974025;28;20105;-60
2023/06/22 02:28:42;;;;;;;3.97;1.70;;;24.20;62.30;;;;;;4971518;28;20430;-59
2023/06/22 02:31:08;;;;;;;3.63;1.75;;;24.20;62.30;;;;;;4954976;28;20089;-60
2023/06/22 02:33:34;;;;;;;2.70;1.73;;;24.20;62.30;;;;;;4973735;28;20050;-60
2023/06/22 02:35:59;;;;;;;2.85;1.83;;;24.20;62.30;;;;;;4972626;28;20055;-59
2023/06/22 02:38:25;;;;;;;2.80;1.80;;;24.20;62.30;;;;;;4972028;28;20414;-59
2023/06/22 02:40:51;;;;;;;2.80;1.58;;;24.20;62.30;;;;;;4973429;28;20497;-60
2023/06/22 02:43:16;;;;;;;3.28;1.88;;;24.20;62.30;;;;;;4972883;28;20146;-60
2023/06/22 02:45:42;;;;;;;2.40;1.60;;;24.20;62.30;;;;;;4973298;28;20104;-60
2023/06/22 02:48:07;;;;;;;2.50;1.60;;;24.20;62.30;;;;;;4973190;28;20109;-60
2023/06/22 02:50:33;;;;;;;3.40;1.70;;;24.20;62.30;;;;;;4988116;28;20046;-60
2023/06/22 02:52:59;;;;;;;2.95;1.80;;;24.20;62.40;;;;;;4992410;28;20062;-59
2023/06/22 02:55:24;;;;;;;3.25;1.83;;;24.20;62.40;;;;;;4992604;28;20061;-59
2023/06/22 02:57:52;;;;;;;3.38;1.70;;;24.20;62.30;;;;;;4991994;28;20042;-59
2023/06/22 03:00:18;;;;;;;4.38;1.83;;;24.20;62.40;;;;;;4983526;28;20058;-60
2023/06/22 03:02:44;;;;;;;3.05;1.88;;;24.20;62.40;;;;;;4972769;28;20043;-60
2023/06/22 03:05:13;;;;;;;3.50;1.80;;;24.20;62.40;;;;;;4972988;28;20034;-60
2023/06/22 03:07:42;;;;;;;2.80;1.55;;;24.20;62.40;;;;;;4973211;28;20504;-60
2023/06/22 03:10:11;;;;;;;2.88;1.98;;;24.20;62.70;;;;;;4971849;28;20369;-60
2023/06/22 03:12:40;;;;;;;1.80;1.45;;;24.20;62.40;;;;;;4973102;28;20054;-60
2023/06/22 03:15:07;;;;;;;2.22;1.70;;;24.10;62.40;;;;;;4972982;28;20221;-60
2023/06/22 03:17:36;;;;;;;2.58;1.88;;;24.10;62.40;;;;;;4976313;28;20455;-60
2023/06/22 03:20:09;;;;;;;2.42;1.67;;;24.20;62.40;;;;;;4976675;28;20059;-59
2023/06/22 03:22:41;;;;;;;2.78;1.90;;;24.10;62.40;;;;;;4977254;28;20043;-59
2023/06/22 03:25:13;;;;;;;3.22;1.90;;;24.20;62.40;;;;;;4976003;28;20046;-59
2023/06/22 03:27:42;;;;;;;2.80;1.77;;;24.20;62.50;;;;;;4976720;28;20046;-60
2023/06/22 03:30:08;;;;;;;2.60;1.83;;;24.20;62.50;;;;;;4976620;28;20091;-60
2023/06/22 03:32:34;;;;;;;2.80;1.70;;;24.20;62.50;;;;;;4975943;28;20038;-59
2023/06/22 03:34:59;;;;;;;2.40;1.70;;;24.10;62.40;;;;;;4976159;28;20042;-59
2023/06/22 03:37:26;;;;;;;2.35;1.75;;;24.10;62.40;;;;;;4976617;28;20458;-59
2023/06/22 03:39:52;;;;;;;2.70;1.90;;;24.10;62.40;;;;;;4975578;28;20486;-60
2023/06/22 03:42:17;;;;;;;2.88;1.58;;;24.10;62.40;;;;;;4976921;28;20074;-59
2023/06/22 03:44:43;;;;;;;2.55;1.80;;;24.10;62.40;;;;;;4976446;28;20047;-59
2023/06/22 03:47:09;;;;;;;2.65;1.83;;;24.10;62.40;;;;;;4975575;28;20039;-59
2023/06/22 03:49:35;;;;;;;2.13;1.48;;;24.10;62.40;;;;;;4976452;28;20510;-59
2023/06/22 03:52:01;;;;;;;3.20;1.85;;;24.10;62.50;;;;;;4975806;28;20085;-59
2023/06/22 03:54:28;;;;;;;2.25;1.45;;;24.10;62.50;;;;;;4976414;28;20039;-59
2023/06/22 03:56:53;;;;;;;2.10;1.60;;;24.10;62.50;;;;;;4976353;28;20043;-59
2023/06/22 03:59:19;;;;;;;3.20;1.88;;;24.10;62.50;;;;;;4975693;28;20663;-59
2023/06/22 04:01:46;;;;;;;3.05;1.90;;;24.10;62.50;;;;;;4980652;28;20101;-59
2023/06/22 04:04:12;;;;;;;2.40;1.50;;;24.10;62.50;;;;;;4990038;28;20402;-60
2023/06/22 04:06:38;;;;;;;2.55;1.75;;;24.10;62.50;;;;;;4994513;28;20042;-59
2023/06/22 04:09:05;;;;;;;2.35;1.58;;;24.10;62.50;;;;;;4995018;28;20125;-59
2023/06/22 04:11:30;;;;;;;2.47;1.88;;;24.10;62.50;;;;;;4994974;28;20075;-59
2023/06/22 04:13:56;;;;;;;2.10;1.45;;;24.10;62.50;;;;;;4994920;28;20042;-60
2023/06/22 04:16:22;;;;;;;3.30;1.73;;;24.10;62.50;;;;;;4994655;28;20050;-59
2023/06/22 04:18:47;;;;;;;2.40;1.60;;;24.10;62.50;;;;;;4995195;28;20046;-59
2023/06/22 04:21:13;;;;;;;3.03;1.55;;;24.10;62.50;;;;;;4994774;28;20046;-60
2023/06/22 04:23:39;;;;;;;3.47;1.80;;;24.10;62.50;;;;;;4995540;28;20142;-59
2023/06/22 04:26:05;;;;;;;3.85;2.13;;;24.10;62.50;;;;;;4994672;28;20038;-59
2023/06/22 04:28:34;;;;;;;2.78;1.70;;;24.10;62.50;;;;;;4993879;28;20072;-59
2023/06/22 04:31:03;;;;;;;2.95;1.90;;;24.10;62.50;;;;;;4993940;28;20054;-60
2023/06/22 04:33:29;;;;;;;2.95;1.65;;;24.10;62.50;;;;;;4995139;28;20046;-59
2023/06/22 04:35:56;;;;;;;2.50;1.70;;;24.00;62.50;;;;;;4993887;28;20062;-59
2023/06/22 04:38:22;;;;;;;3.22;2.10;;;24.10;62.50;;;;;;4995325;28;20050;-59
2023/06/22 04:40:48;;;;;;;2.60;1.70;;;24.00;62.50;;;;;;4994336;28;20051;-59
2023/06/22 04:43:13;;;;;;;2.88;2.15;;;24.00;62.50;;;;;;4994143;28;20035;-59
2023/06/22 04:45:39;;;;;;;2.80;2.00;;;24.10;62.50;;;;;;4994150;28;20508;-59
2023/06/22 04:48:05;;;;;;;3.58;2.05;;;24.10;62.50;;;;;;4994150;28;20466;-60
2023/06/22 04:50:31;;;;;;;2.72;1.85;;;24.10;62.50;;;;;;4993316;28;20081;-60
2023/06/22 04:52:56;;;;;;;3.83;2.00;;;24.10;62.50;;;;;;4993171;28;20070;-60
2023/06/22 04:55:22;;;;;;;3.10;1.80;;;24.10;62.50;;;;;;4992240;28;20057;-60
2023/06/22 04:57:48;;;;;;;21.95;17.98;;;24.00;62.50;;;;;;4993306;28;20066;-60
2023/06/22 05:00:23;;;;;;;29.73;24.85;;;24.00;62.50;;;;;;4990160;28;20058;-60
2023/06/22 05:02:49;;;;;;;31.58;23.45;;;24.00;62.50;;;;;;4973030;28;20525;-60
2023/06/22 05:05:14;;;;;;;30.20;24.15;;;23.90;62.70;;;;;;4974616;28;20131;-59
2023/06/22 05:07:45;;;;;;;29.27;22.55;;;23.80;62.90;;;;;;4974972;28;20117;-60
2023/06/22 05:10:12;;;;;;;32.08;24.75;;;23.70;63.00;;;;;;4974149;28;20094;-60
2023/06/22 05:12:38;;;;;;;32.25;24.95;;;23.70;63.20;;;;;;4974399;28;20101;-60
2023/06/22 05:15:04;;;;;;;32.20;25.90;;;23.60;63.30;;;;;;4973892;28;20486;-60
2023/06/22 05:17:29;;;;;;;28.95;24.00;;;23.60;63.40;;;;;;4973921;28;20050;-59
2023/06/22 05:19:55;;;;;;;30.70;23.52;;;23.50;63.60;;;;;;4974616;28;20049;-59
2023/06/22 05:22:21;;;;;;;29.85;23.17;;;23.50;63.70;;;;;;4974797;28;20414;-59
2023/06/22 05:24:46;;;;;;;29.60;22.58;;;23.50;63.90;;;;;;4974323;28;20450;-59
2023/06/22 05:27:12;;;;;;;30.88;22.92;;;23.40;63.90;;;;;;4981842;28;20038;-59
2023/06/22 05:29:38;;;;;;;29.25;22.17;;;23.40;64.00;;;;;;4978651;28;20050;-59
2023/06/22 05:32:04;;;;;;;29.40;22.33;;;23.30;64.00;;;;;;4971754;28;20047;-59
2023/06/22 05:34:30;;;;;;;28.90;22.90;;;23.30;64.00;;;;;;4974763;28;20085;-59
2023/06/22 05:36:55;;;;;;;30.23;21.85;;;23.40;64.00;;;;;;4973469;28;20086;-59
2023/06/22 05:39:21;;;;;;;26.02;19.80;;;23.30;63.90;;;;;;4973522;28;20095;-59
2023/06/22 05:41:46;;;;;;;22.73;18.27;;;23.30;63.90;;;;;;4974121;28;20526;-60
2023/06/22 05:44:12;;;;;;;20.60;15.07;;;23.40;63.90;;;;;;4974363;28;20133;-60
2023/06/22 05:46:44;;;;;;;17.42;13.77;;;23.40;64.00;;;;;;4972829;28;20039;-60
2023/06/22 05:49:10;;;;;;;18.55;13.98;;;23.40;63.90;;;;;;4972433;28;20046;-60
2023/06/22 05:51:35;;;;;;;22.50;14.23;;;23.50;63.80;;;;;;4973668;28;20074;-59
2023/06/22 05:54:01;;;;;;;19.30;13.23;;;23.50;63.70;;;;;;4973687;28;20043;-59
2023/06/22 05:56:26;;;;;;;18.60;13.52;;;23.50;63.70;;;;;;4974059;28;20035;-58
2023/06/22 05:58:52;;;;;;;20.05;13.18;;;23.60;63.70;;;;;;4984683;28;20053;-59
2023/06/22 06:01:18;;;;;;;15.68;10.82;;;23.60;63.70;;;;;;4992701;28;20489;-58
2023/06/22 06:03:44;;;;;;;16.63;11.82;;;23.60;63.80;;;;;;4993040;28;20046;-58
2023/06/22 06:06:10;;;;;;;18.73;12.65;;;23.60;63.70;;;;;;4992385;28;20050;-59
2023/06/22 06:08:39;;;;;;;18.40;13.30;;;23.60;63.70;;;;;;4992139;28;20532;-58
2023/06/22 06:11:05;;;;;;;17.73;12.18;;;23.70;63.80;;;;;;4991968;28;20555;-59
2023/06/22 06:13:31;;;;;;;18.98;13.65;;;23.60;63.70;;;;;;4991745;28;20073;-59
2023/06/22 06:15:57;;;;;;;17.00;12.65;;;23.70;63.70;;;;;;4988182;28;20034;-59
2023/06/22 06:18:22;;;;;;;17.17;12.15;;;23.70;63.80;;;;;;4991481;28;20457;-58
2023/06/22 06:20:48;;;;;;;21.17;13.68;;;23.70;63.80;;;;;;4990103;28;20042;-58
2023/06/22 06:23:13;;;;;;;17.95;13.18;;;23.70;63.80;;;;;;4992442;28;20039;-58
2023/06/22 06:25:39;;;;;;;18.00;13.07;;;23.70;63.80;;;;;;4991261;28;20826;-58
2023/06/22 06:28:05;;;;;;;17.98;12.02;;;23.70;63.80;;;;;;4973047;28;20043;-59
2023/06/22 06:30:30;;;;;;;18.27;12.80;;;23.70;63.90;;;;;;4973618;28;20329;-59
2023/06/22 06:32:56;;;;;;;16.60;11.88;;;23.70;64.00;;;;;;4973169;28;20046;-58
2023/06/22 06:35:22;;;;;;;16.70;11.57;;;23.70;64.00;;;;;;4972645;28;20045;-60
2023/06/22 06:37:48;;;;;;;18.25;11.18;;;23.70;63.90;;;;;;4973546;28;20118;-58
2023/06/22 06:40:14;;;;;;;17.55;10.80;;;23.70;64.00;;;;;;4973724;28;20098;-58
2023/06/22 06:42:41;;;;;;;17.75;11.48;;;23.70;63.90;;;;;;4988274;28;20046;-59
2023/06/22 06:45:28;;;;;;;15.13;10.57;;;23.70;63.90;;;;;;4992422;28;20050;-59
2023/06/22 06:47:53;;;;;;;15.95;10.48;;;23.80;64.20;;;;;;4991506;28;20081;-59
2023/06/22 06:50:19;;;;;;;15.27;10.18;;;23.80;64.00;;;;;;4993728;28;20050;-59
2023/06/22 06:52:45;;;;;;;18.58;11.73;;;23.80;64.00;;;;;;4998125;28;20049;-59
2023/06/22 06:55:11;;;;;;;16.95;11.35;;;23.80;64.10;;;;;;4999069;28;20046;-60
2023/06/22 06:57:41;;;;;;;13.88;10.07;;;23.80;64.00;;;;;;4999609;28;20097;-60
2023/06/22 07:00:11;;;;;;;13.45;9.98;;;23.80;64.00;;;;;;4999368;28;20046;-60
2023/06/22 07:02:41;;;;;;;14.30;10.20;;;23.80;64.00;;;;;;4997951;28;20088;-59
2023/06/22 07:05:07;;;;;;;14.98;9.65;;;23.80;63.90;;;;;;4999001;28;20054;-59
2023/06/22 07:07:32;;;;;;;13.10;9.40;;;23.80;64.00;;;;;;4999446;28;20521;-59
2023/06/22 07:09:58;;;;;;;14.18;9.13;;;23.80;64.00;;;;;;4998958;28;20046;-59
2023/06/22 07:12:24;;;;;;;14.10;8.88;;;23.80;63.90;;;;;;4999115;28;20046;-59
2023/06/22 07:14:50;;;;;;;13.48;9.10;;;23.80;64.00;;;;;;4998908;28;20046;-59
2023/06/22 07:17:16;;;;;;;13.02;8.68;;;23.80;64.00;;;;;;4998262;28;20038;-59
2023/06/22 07:19:42;;;;;;;13.27;9.07;;;23.80;64.00;;;;;;4998976;28;20474;-59
2023/06/22 07:22:07;;;;;;;13.88;9.20;;;23.80;64.10;;;;;;4998184;28;20048;-59
2023/06/22 07:24:33;;;;;;;15.25;9.90;;;23.80;64.10;;;;;;4998476;28;20041;-59
2023/06/22 07:26:59;;;;;;;13.10;9.57;;;23.80;64.10;;;;;;4999148;28;20117;-59
2023/06/22 07:29:25;;;;;;;12.45;9.15;;;23.90;64.20;;;;;;4999402;28;20042;-59
2023/06/22 07:31:53;;;;;;;13.25;8.85;;;23.90;64.10;;;;;;4998226;28;20093;-59
2023/06/22 07:34:18;;;;;;;12.77;8.50;;;23.90;64.10;;;;;;4998547;28;20120;-58
2023/06/22 07:36:44;;;;;;;13.57;8.43;;;23.90;64.10;;;;;;4998953;28;20086;-59
2023/06/22 07:39:12;;;;;;;11.63;7.72;;;23.90;64.00;;;;;;4996527;28;20105;-60
2023/06/22 07:41:38;;;;;;;13.05;8.98;;;23.90;63.90;;;;;;4996404;28;21488;-60
2023/06/22 07:44:04;;;;;;;11.52;7.55;;;23.90;63.80;;;;;;4997422;28;20054;-61
2023/06/22 07:46:30;;;;;;;11.68;7.32;;;23.90;63.70;;;;;;4999031;28;20050;-59
2023/06/22 07:48:56;;;;;;;11.18;7.50;;;23.90;63.70;;;;;;4999026;28;20093;-59
2023/06/22 07:51:22;;;;;;;11.40;7.32;;;23.90;63.60;;;;;;4998724;28;20405;-59
2023/06/22 07:53:48;;;;;;;12.23;7.07;;;23.90;63.40;;;;;;4998887;28;20038;-59
2023/06/22 07:56:18;;;;;;;9.80;7.00;;;23.90;63.40;;;;;;4998937;28;20121;-59
2023/06/22 07:58:44;;;;;;;9.38;6.47;;;23.90;63.30;;;;;;4998755;28;20058;-59
2023/06/22 08:01:10;;;;;;;9.45;5.95;;;23.90;63.10;;;;;;4998849;28;20241;-59
2023/06/22 08:03:36;;;;;;;9.07;5.90;;;23.90;63.00;;;;;;4995007;28;20105;-59
2023/06/22 08:06:02;;;;;;;9.05;5.22;;;23.90;63.00;;;;;;4995289;28;20046;-59
2023/06/22 08:08:28;;;;;;;9.48;5.45;;;23.90;63.00;;;;;;4995764;28;20077;-60
2023/06/22 08:10:53;;;;;;;8.10;5.00;;;23.90;63.00;;;;;;4992514;28;20109;-58
2023/06/22 08:13:19;;;;;;;8.55;4.70;;;23.90;63.00;;;;;;4994882;28;20121;-59
2023/06/22 08:15:44;;;;;;;7.88;4.47;;;23.90;63.00;;;;;;4994342;28;20041;-59
2023/06/22 08:18:10;;;;;;;7.85;4.53;;;24.00;63.20;;;;;;4994375;28;20050;-61
2023/06/22 08:20:36;;;;;;;6.35;3.67;;;24.00;63.20;;;;;;4994860;28;20042;-61
2023/06/22 08:23:06;;;;;;;7.68;3.65;;;24.00;63.20;;;;;;4994778;28;20046;-61
2023/06/22 08:25:35;;;;;;;6.03;4.07;;;24.00;63.20;;;;;;4994761;28;20088;-61
2023/06/22 08:28:01;;;;;;;7.07;4.00;;;24.00;63.30;;;;;;4993480;28;20097;-60
2023/06/22 08:30:27;;;;;;;5.68;3.30;;;24.00;63.30;;;;;;4995402;28;20046;-61
2023/06/22 08:32:54;;;;;;;7.82;3.47;;;24.00;63.30;;;;;;4994740;28;20061;-61
2023/06/22 08:35:20;;;;;;;5.53;3.15;;;24.00;63.40;;;;;;4994085;28;20482;-61
2023/06/22 08:37:52;;;;;;;7.95;3.70;;;24.10;63.40;;;;;;4992399;28;20046;-61
2023/06/22 08:40:19;;;;;;;6.18;3.13;;;24.10;63.50;;;;;;4994902;28;20053;-61
2023/06/22 08:42:45;;;;;;;4.53;3.10;;;24.10;63.50;;;;;;4995403;28;20129;-61
2023/06/22 08:45:11;;;;;;;6.80;3.50;;;24.10;63.50;;;;;;4994650;28;20133;-60
2023/06/22 08:47:36;;;;;;;7.28;3.45;;;24.10;63.70;;;;;;4994621;28;20130;-62
2023/06/22 08:50:05;;;;;;;6.22;3.20;;;24.10;63.70;;;;;;4994677;28;20047;-62
2023/06/22 08:52:31;;;;;;;6.63;3.50;;;24.10;63.80;;;;;;4995317;28;20133;-60
2023/06/22 08:54:58;;;;;;;7.18;3.10;;;24.20;64.30;;;;;;4994416;28;20133;-61
2023/06/22 08:57:23;;;;;;;6.63;3.10;;;24.20;64.40;;;;;;4994929;28;20039;-59
2023/06/22 08:59:49;;;;;;;6.20;3.20;;;24.20;64.30;;;;;;4994857;28;20053;-58
2023/06/22 09:02:14;;;;;;;5.95;3.28;;;24.20;64.50;;;;;;4994525;28;20402;-60
2023/06/22 09:04:41;;;;;;;6.72;4.20;;;24.20;65.10;;;;;;4994852;28;20054;-58
2023/06/22 09:07:06;;;;;;;6.60;3.05;;;24.20;65.10;;;;;;4994435;28;20510;-58
2023/06/22 09:09:32;;;;;;;5.15;2.88;;;24.20;64.80;;;;;;4994201;28;20096;-58
2023/06/22 09:11:58;;;;;;;7.03;3.40;;;24.20;64.70;;;;;;4994365;28;20042;-58
2023/06/22 09:14:23;;;;;;;6.32;3.28;;;24.20;64.70;;;;;;4994004;28;20050;-58
2023/06/22 09:16:49;;;;;;;5.25;2.97;;;24.20;64.80;;;;;;4993561;28;20053;-58
2023/06/22 09:19:14;;;;;;;5.50;3.15;;;24.30;65.50;;;;;;4993516;28;20038;-59
2023/06/22 09:21:40;;;;;;;5.13;3.20;;;24.20;64.90;;;;;;4994733;28;20053;-58
2023/06/22 09:24:05;;;;;;;6.40;2.95;;;24.30;64.90;;;;;;4993261;28;20101;-58
2023/06/22 09:26:31;;;;;;;4.82;3.20;;;24.30;65.00;;;;;;4993590;28;20088;-58
2023/06/22 09:28:57;;;;;;;6.45;3.47;;;24.30;65.00;;;;;;4993904;28;20394;-58
2023/06/22 09:31:26;;;;;;;4.68;3.00;;;24.30;65.00;;;;;;4993465;28;20045;-58
2023/06/22 09:33:53;;;;;;;6.60;3.28;;;24.30;65.00;;;;;;4993886;28;20045;-58
2023/06/22 09:36:22;;;;;;;8.77;3.55;;;24.30;65.00;;;;;;4994235;28;20465;-59
2023/06/22 09:38:48;;;;;;;6.50;3.45;;;24.30;64.90;;;;;;4982316;28;20137;-58
2023/06/22 09:41:14;;;;;;;6.80;3.38;;;24.30;64.90;;;;;;4975506;28;20742;-59
2023/06/22 09:43:39;;;;;;;5.38;3.53;;;24.30;65.10;;;;;;4984010;28;20057;-60
2023/06/22 09:46:06;;;;;;;7.70;3.30;;;24.30;65.20;;;;;;4993371;28;20042;-57
2023/06/22 09:48:32;;;;;;;4.45;3.42;;;24.40;65.30;;;;;;4987948;28;20047;-59
2023/06/22 09:50:58;;;;;;;6.05;3.80;;;24.40;65.30;;;;;;4973386;28;20197;-58
2023/06/22 09:53:23;;;;;;;5.07;3.58;;;24.40;65.40;;;;;;4974043;28;20045;-59
2023/06/22 09:55:49;;;;;;;8.48;3.47;;;24.40;65.50;;;;;;4973750;28;20184;-59
2023/06/22 09:58:14;;;;;;;7.75;3.65;;;24.40;65.50;;;;;;4973832;28;20653;-58
2023/06/22 10:00:41;;;;;;;5.88;3.47;;;24.40;65.50;;;;;;4973775;28;20039;-58
2023/06/22 10:03:07;;;;;;;6.80;3.92;;;24.40;65.50;;;;;;4973845;28;20101;-58
2023/06/22 10:05:32;;;;;;;5.20;3.20;;;24.50;65.60;;;;;;4972183;28;20078;-58
2023/06/22 10:07:58;;;;;;;7.00;3.88;;;24.50;65.70;;;;;;4976646;28;20038;-57
2023/06/22 10:10:24;;;;;;;6.60;3.95;;;24.50;65.70;;;;;;4992221;28;20124;-57
2023/06/22 10:12:55;;;;;;;5.05;3.13;;;24.50;65.70;;;;;;4992634;28;20034;-57
2023/06/22 10:15:21;;;;;;;5.88;3.33;;;24.50;65.70;;;;;;4990608;28;20129;-57
2023/06/22 10:17:47;;;;;;;7.25;3.70;;;24.50;65.50;;;;;;4992634;28;20121;-57
2023/06/22 10:20:13;;;;;;;5.88;3.60;;;24.50;65.40;;;;;;4992763;28;20089;-57
2023/06/22 10:22:42;;;;;;;5.07;3.50;;;24.50;65.30;;;;;;4993627;28;20073;-57
2023/06/22 10:25:08;;;;;;;6.25;3.70;;;24.50;65.40;;;;;;4992611;28;20112;-57
2023/06/22 10:27:34;;;;;;;6.13;3.92;;;24.50;65.30;;;;;;4992513;28;20038;-57
2023/06/22 10:29:59;;;;;;;6.03;3.70;;;24.50;65.30;;;;;;4992931;28;20116;-56
2023/06/22 10:32:25;;;;;;;8.23;3.88;;;24.60;65.30;;;;;;4993230;28;20046;-57
2023/06/22 10:34:50;;;;;;;5.88;3.88;;;24.60;65.20;;;;;;4992257;28;20505;-57
2023/06/22 10:37:16;;;;;;;6.70;4.22;;;24.60;65.20;;;;;;4992403;28;20057;-57
2023/06/22 10:39:41;;;;;;;5.32;3.67;;;24.60;65.20;;;;;;4985330;28;20050;-58
2023/06/22 10:42:07;;;;;;;5.10;3.63;;;24.60;65.20;;;;;;4990002;28;20042;-58
2023/06/22 10:44:33;;;;;;;4.97;3.22;;;24.60;65.20;;;;;;4990681;28;20445;-58
2023/06/22 10:46:58;;;;;;;5.93;3.55;;;24.60;65.30;;;;;;4971928;28;20053;-58
2023/06/22 10:49:24;;;;;;;7.72;3.72;;;24.60;65.30;;;;;;4973121;28;20511;-58
2023/06/22 10:51:49;;;;;;;5.80;3.13;;;24.60;65.30;;;;;;4973013;28;20047;-58
2023/06/22 10:54:18;;;;;;;5.60;3.67;;;24.60;65.30;;;;;;4971934;28;20039;-58
2023/06/22 10:56:43;;;;;;;5.10;3.40;;;24.70;65.40;;;;;;4992788;28;20057;-59
2023/06/22 10:59:09;;;;;;;5.07;3.50;;;24.70;65.40;;;;;;4992236;28;20038;-60
2023/06/22 11:01:34;;;;;;;4.95;3.50;;;24.70;65.30;;;;;;4992208;28;20157;-59
2023/06/22 11:04:00;;;;;;;5.20;3.60;;;24.70;65.20;;;;;;4992396;28;20580;-59
2023/06/22 11:06:26;;;;;;;7.00;3.88;;;24.70;65.20;;;;;;4991989;28;20046;-59
2023/06/22 11:08:51;;;;;;;6.95;3.65;;;24.60;65.10;;;;;;4991752;28;20046;-59
2023/06/22 11:11:17;;;;;;;7.07;3.13;;;24.60;65.10;;;;;;4992083;28;20050;-59
2023/06/22 11:13:43;;;;;;;4.97;3.55;;;24.60;65.10;;;;;;4992848;28;20055;-59
2023/06/22 11:16:10;;;;;;;6.03;3.50;;;24.60;65.10;;;;;;4991253;28;20516;-59
2023/06/22 11:18:35;;;;;;;5.05;3.47;;;24.60;65.10;;;;;;4992632;28;20043;-59
2023/06/22 11:21:01;;;;;;;4.90;3.50;;;24.60;65.10;;;;;;4991637;28;20084;-59
2023/06/22 11:23:27;;;;;;;6.22;3.85;;;24.50;65.10;;;;;;4992074;28;20038;-59
2023/06/22 11:25:53;;;;;;;5.63;3.13;;;24.60;65.20;;;;;;4992144;28;20126;-59
2023/06/22 11:28:19;;;;;;;5.38;3.20;;;24.50;65.10;;;;;;4992765;28;20054;-59
2023/06/22 11:30:45;;;;;;;4.40;3.28;;;24.50;65.00;;;;;;4991789;28;20046;-59
2023/06/22 11:33:11;;;;;;;4.97;3.33;;;24.50;65.00;;;;;;4991757;28;20054;-59
2023/06/22 11:35:36;;;;;;;5.13;3.47;;;24.50;65.00;;;;;;4990843;28;20050;-59
2023/06/22 11:38:03;;;;;;;5.70;4.20;;;24.50;65.00;;;;;;4994273;28;20046;-60
2023/06/22 11:40:29;;;;;;;5.00;3.50;;;24.50;65.00;;;;;;4996053;28;20053;-59
2023/06/22 11:42:55;;;;;;;4.18;3.35;;;24.50;65.00;;;;;;4994737;28;20035;-59
2023/06/22 11:45:20;;;;;;;5.88;3.42;;;24.50;65.00;;;;;;4995362;28;20057;-59
2023/06/22 11:47:46;;;;;;;4.80;3.33;;;24.50;65.00;;;;;;4996256;28;20474;-59
2023/06/22 11:50:12;;;;;;;5.13;3.63;;;24.50;65.00;;;;;;4995429;28;20042;-59
2023/06/22 11:52:37;;;;;;;6.05;3.28;;;24.50;64.90;;;;;;4995906;28;20038;-59
2023/06/22 11:55:05;;;;;;;5.60;3.58;;;24.50;64.90;;;;;;4995246;28;20046;-59
2023/06/22 11:57:33;;;;;;;5.10;3.67;;;24.50;64.90;;;;;;4995105;28;20061;-59
2023/06/22 11:59:58;;;;;;;;;;;24.50;64.90;;;;;;4995063;28;20046;-58
2023/06/22 12:02:24;;;;;;;4.93;3.38;;;24.50;64.80;;;;;;4995571;28;19990;-59
2023/06/22 12:04:52;;;;;;;5.30;3.40;;;24.50;64.90;;;;;;4993310;28;20449;-59
2023/06/22 12:07:18;;;;;;;;;;;24.50;64.90;;;;;;4996003;28;20053;-58
2023/06/22 12:09:43;;;;;;;5.25;3.70;;;24.50;64.70;;;;;;4995244;28;19921;-58
2023/06/22 12:12:09;;;;;;;5.68;3.42;;;24.40;64.80;;;;;;4994693;28;20038;-58
2023/06/22 12:14:35;;;;;;;5.45;3.85;;;24.40;64.80;;;;;;4995481;28;20042;-58
2023/06/22 12:17:01;;;;;;;5.75;3.72;;;24.50;64.90;;;;;;4994729;28;20081;-58
2023/06/22 12:19:26;;;;;;;6.70;3.50;;;24.50;64.80;;;;;;4994573;28;20046;-58
2023/06/22 12:21:52;;;;;;;5.03;3.17;;;24.50;64.80;;;;;;4994561;28;20046;-58
2023/06/22 12:24:17;;;;;;;4.80;3.50;;;24.50;64.80;;;;;;4995179;28;20459;-59
2023/06/22 12:26:44;;;;;;;4.40;3.17;;;24.50;64.80;;;;;;4994503;28;20050;-59
2023/06/22 12:29:09;;;;;;;4.78;3.38;;;24.50;64.70;;;;;;4994906;28;20046;-59
2023/06/22 12:31:36;;;;;;;5.70;3.55;;;24.50;64.70;;;;;;4994900;28;20370;-59
2023/06/22 12:34:02;;;;;;;4.47;3.25;;;24.50;64.70;;;;;;4993530;28;20057;-58
2023/06/22 12:36:27;;;;;;;5.95;3.40;;;24.50;64.70;;;;;;4983163;28;20050;-58
2023/06/22 12:38:54;;;;;;;4.90;3.53;;;24.50;64.70;;;;;;4985655;28;20093;-58
2023/06/22 12:41:19;;;;;;;5.22;3.20;;;24.50;64.70;;;;;;4982639;28;20049;-58